createdAt,value
2023-10-12T00:00:00.034Z,9.07
2023-10-12T00:02:28.947Z,10.77
2023-10-12T00:05:07.453Z,10.98
2023-10-12T00:07:35.535Z,10.65
2023-10-12T00:10:10.269Z,10.65
2023-10-12T00:12:46.413Z,10.55
2023-10-12T00:15:21.519Z,10.55
2023-10-12T00:17:52.434Z,11.52
2023-10-12T00:20:33.546Z,11.52
2023-10-12T00:23:12.003Z,11.35
2023-10-12T00:25:48.763Z,12.70
2023-10-12T00:28:24.705Z,11.13
2023-10-12T00:30:56.555Z,11.32
2023-10-12T00:33:25.044Z,11.43
2023-10-12T00:36:01.086Z,10.52
2023-10-12T00:38:31.919Z,11.07
2023-10-12T00:41:04.865Z,12.05
2023-10-12T00:43:38.928Z,12.32
2023-10-12T00:46:40.776Z,11.48
2023-10-12T00:49:22.264Z,10.90
2023-10-12T00:52:29.143Z,10.00
2023-10-12T00:55:14.870Z,9.90
2023-10-12T00:57:43.875Z,10.65
2023-10-12T01:00:16.705Z,9.43
2023-10-12T01:03:05.330Z,10.50
2023-10-12T01:05:36.772Z,10.02
2023-10-12T01:08:07.269Z,9.20
2023-10-12T01:10:42.389Z,9.55
2023-10-12T01:13:10.402Z,8.77
2023-10-12T01:15:41.078Z,8.35
2023-10-12T01:18:12.363Z,7.68
2023-10-12T01:20:40.622Z,7.32
2023-10-12T01:23:08.491Z,6.82
2023-10-12T01:25:41.506Z,6.60
2023-10-12T01:28:13.634Z,6.88
2023-10-12T01:30:53.887Z,6.43
2023-10-12T01:33:21.179Z,6.15
2023-10-12T01:35:50.969Z,5.03
2023-10-12T01:38:18.209Z,4.25
2023-10-12T01:40:54.576Z,4.35
2023-10-12T01:43:21.911Z,4.05
2023-10-12T01:45:55.050Z,4.38
2023-10-12T01:48:30.621Z,3.67
2023-10-12T01:50:57.983Z,3.70
2023-10-12T01:53:30.746Z,3.30
2023-10-12T01:56:00.707Z,3.33
2023-10-12T01:58:29.577Z,3.05
2023-10-12T02:01:08.610Z,3.00
2023-10-12T02:03:44.093Z,2.13
2023-10-12T02:06:17.516Z,2.03
2023-10-12T02:08:45.955Z,2.35
2023-10-12T02:11:18.080Z,2.35
2023-10-12T02:13:49.516Z,2.35
2023-10-12T02:16:32.095Z,1.60
2023-10-12T02:19:05.242Z,1.90
2023-10-12T02:21:42.014Z,2.00
2023-10-12T02:24:09.594Z,1.60
2023-10-12T02:26:37.195Z,1.83
2023-10-12T02:29:18.044Z,1.65
2023-10-12T02:31:52.606Z,1.00
2023-10-12T02:34:32.139Z,1.45
2023-10-12T02:37:13.367Z,0.95
2023-10-12T02:39:42.806Z,1.05
2023-10-12T02:42:44.005Z,0.90
2023-10-12T02:45:18.835Z,0.70
2023-10-12T02:47:49.394Z,0.70
2023-10-12T02:50:24.937Z,0.80
2023-10-12T02:52:53.701Z,0.50
2023-10-12T02:55:22.062Z,0.57
2023-10-12T02:58:23.198Z,0.47
2023-10-12T03:00:56.663Z,0.68
2023-10-12T03:03:32.031Z,0.30
2023-10-12T03:06:01.873Z,0.40
2023-10-12T03:08:32.294Z,0.52
2023-10-12T03:10:59.610Z,0.50
2023-10-12T03:13:37.888Z,0.50
2023-10-12T03:16:15.211Z,0.30
2023-10-12T03:18:44.287Z,0.30
2023-10-12T03:21:15.223Z,0.40
2023-10-12T03:23:51.425Z,0.40
2023-10-12T03:26:21.771Z,0.32
2023-10-12T03:28:51.417Z,0.50
2023-10-12T03:31:25.430Z,0.30
2023-10-12T03:33:57.282Z,0.40
2023-10-12T03:36:34.258Z,0.90
2023-10-12T03:39:13.693Z,0.40
2023-10-12T03:41:56.178Z,0.30
2023-10-12T03:44:42.429Z,0.43
2023-10-12T03:47:22.801Z,0.40
2023-10-12T03:49:54.417Z,0.40
2023-10-12T03:52:32.835Z,0.30
2023-10-12T03:55:00.126Z,0.30
2023-10-12T03:57:37.306Z,0.20
2023-10-12T04:00:10.957Z,0.20
2023-10-12T04:02:53.892Z,0.20
2023-10-12T04:05:35.604Z,0.28
2023-10-12T04:08:06.778Z,0.30
2023-10-12T04:10:49.380Z,0.17
2023-10-12T04:13:29.970Z,0.25
2023-10-12T04:16:06.147Z,0.28
2023-10-12T04:18:34.989Z,0.10
2023-10-12T04:21:05.107Z,0.47
2023-10-12T04:23:35.041Z,0.20
2023-10-12T04:26:15.156Z,0.35
2023-10-12T04:29:13.008Z,0.30
2023-10-12T04:31:46.910Z,0.40
2023-10-12T04:34:18.611Z,0.50
2023-10-12T04:36:46.441Z,0.50
2023-10-12T04:39:26.499Z,0.50
2023-10-12T04:42:14.177Z,0.38
2023-10-12T04:44:45.183Z,0.47
2023-10-12T04:47:16.674Z,0.40
2023-10-12T04:49:49.619Z,0.30
2023-10-12T04:52:25.843Z,0.40
2023-10-12T04:55:12.499Z,0.50
2023-10-12T04:57:40.274Z,0.40
2023-10-12T05:00:13.264Z,0.88
2023-10-12T05:02:50.175Z,0.45
2023-10-12T05:05:24.711Z,0.70
2023-10-12T05:07:56.942Z,0.40
2023-10-12T05:10:33.000Z,0.60
2023-10-12T05:13:07.472Z,0.52
2023-10-12T05:15:57.382Z,0.80
2023-10-12T05:18:26.471Z,0.60
2023-10-12T05:20:54.143Z,0.43
2023-10-12T05:23:21.674Z,0.55
2023-10-12T05:25:49.753Z,0.75
2023-10-12T05:28:20.798Z,0.60
2023-10-12T05:30:56.292Z,0.70
2023-10-12T05:33:36.319Z,0.60
2023-10-12T05:36:12.741Z,0.60
2023-10-12T05:38:50.098Z,0.50
2023-10-12T05:41:24.250Z,0.55
2023-10-12T05:43:57.921Z,0.50
2023-10-12T05:46:30.459Z,0.30
2023-10-12T05:48:59.739Z,0.70
2023-10-12T05:51:28.803Z,0.55
2023-10-12T05:54:04.383Z,0.40
2023-10-12T05:56:34.076Z,0.50
2023-10-12T05:59:05.090Z,0.80
2023-10-12T06:04:09.877Z,0.80
2023-10-12T06:06:42.991Z,0.80
2023-10-12T06:09:14.500Z,0.50
2023-10-12T06:11:44.837Z,0.50
2023-10-12T06:14:16.096Z,0.98
2023-10-12T06:16:45.750Z,0.85
2023-10-12T06:19:25.454Z,1.23
2023-10-12T06:21:53.476Z,0.90
2023-10-12T06:24:36.907Z,0.70
2023-10-12T06:27:25.210Z,0.85
2023-10-12T06:29:56.266Z,0.70
2023-10-12T06:32:35.425Z,0.60
2023-10-12T06:35:11.032Z,0.80
2023-10-12T06:38:01.658Z,0.50
2023-10-12T06:40:31.677Z,0.50
2023-10-12T06:43:13.836Z,0.65
2023-10-12T06:45:52.987Z,0.70
2023-10-12T06:48:44.477Z,0.75
2023-10-12T06:51:14.985Z,0.77
2023-10-12T06:53:48.866Z,0.73
2023-10-12T06:56:16.087Z,0.77
2023-10-12T06:59:10.743Z,1.25
2023-10-12T07:01:52.135Z,1.50
2023-10-12T07:04:27.033Z,1.17
2023-10-12T07:06:58.458Z,0.90
2023-10-12T07:09:44.180Z,0.85
2023-10-12T07:12:19.690Z,0.70
2023-10-12T07:14:48.362Z,0.80
2023-10-12T07:17:17.503Z,0.90
2023-10-12T07:19:48.558Z,0.60
2023-10-12T07:22:20.343Z,1.08
2023-10-12T07:24:58.100Z,1.17
2023-10-12T07:27:30.255Z,1.35
2023-10-12T07:30:16.495Z,0.88
2023-10-12T07:32:56.206Z,0.80
2023-10-12T07:35:35.682Z,1.45
2023-10-12T07:38:09.078Z,1.55
2023-10-12T07:40:37.848Z,1.63
2023-10-12T07:43:09.101Z,1.30
2023-10-12T07:45:49.237Z,1.55
2023-10-12T07:48:40.811Z,1.50
2023-10-12T07:51:16.995Z,1.40
2023-10-12T07:53:51.959Z,1.10
2023-10-12T07:56:20.036Z,1.15
2023-10-12T07:58:52.240Z,1.25
2023-10-12T08:01:42.376Z,1.40
2023-10-12T08:04:30.663Z,1.25
2023-10-12T08:06:58.109Z,1.30
2023-10-12T08:09:26.681Z,1.02
2023-10-12T08:11:55.030Z,0.80
2023-10-12T08:14:27.271Z,0.90
2023-10-12T08:17:13.366Z,0.82
2023-10-12T08:19:41.009Z,0.80
2023-10-12T08:22:31.438Z,1.00
2023-10-12T08:24:59.969Z,0.80
2023-10-12T08:27:49.258Z,1.10
2023-10-12T08:30:24.585Z,0.95
2023-10-12T08:32:59.393Z,1.17
2023-10-12T08:35:45.345Z,1.23
2023-10-12T08:38:27.969Z,1.08
2023-10-12T08:41:27.793Z,0.85
2023-10-12T08:44:00.660Z,1.00
2023-10-12T08:46:47.278Z,1.10
2023-10-12T08:49:33.246Z,1.05
2023-10-12T08:52:19.197Z,0.75
2023-10-12T08:54:52.424Z,0.82
2023-10-12T08:57:53.747Z,0.65
2023-10-12T09:00:24.490Z,0.90
2023-10-12T09:03:18.524Z,0.70
2023-10-12T09:05:53.070Z,1.00
2023-10-12T09:08:40.403Z,0.80
2023-10-12T09:11:07.597Z,1.00
2023-10-12T09:13:36.808Z,0.90
2023-10-12T09:16:12.872Z,0.90
2023-10-12T09:18:57.669Z,0.88
2023-10-12T09:21:48.522Z,0.90
2023-10-12T09:24:22.909Z,0.90
2023-10-12T09:26:58.875Z,0.98
2023-10-12T09:29:28.878Z,1.30
2023-10-12T09:32:25.754Z,1.08
2023-10-12T09:35:12.613Z,1.30
2023-10-12T09:37:46.568Z,1.20
2023-10-12T09:40:40.357Z,1.08
2023-10-12T09:43:13.625Z,1.45
2023-10-12T09:45:48.643Z,1.10
2023-10-12T09:48:22.316Z,1.20
2023-10-12T09:50:51.329Z,1.17
2023-10-12T09:53:27.893Z,1.20
2023-10-12T09:56:28.154Z,1.00
2023-10-12T09:59:08.909Z,0.80
2023-10-12T10:01:40.902Z,1.10
2023-10-12T10:04:28.924Z,1.10
2023-10-12T10:07:38.107Z,1.10
2023-10-12T10:10:33.002Z,1.00
2023-10-12T10:13:01.382Z,0.93
2023-10-12T10:15:46.356Z,1.00
2023-10-12T10:18:18.286Z,0.80
2023-10-12T10:20:58.374Z,1.13
2023-10-12T10:23:26.009Z,1.25
2023-10-12T10:25:57.726Z,1.13
2023-10-12T10:28:29.264Z,1.10
2023-10-12T10:31:00.603Z,1.25
2023-10-12T10:33:30.257Z,1.33
2023-10-12T10:36:06.799Z,1.33
2023-10-12T10:38:34.128Z,1.27
2023-10-12T10:41:19.470Z,1.33
2023-10-12T10:43:47.729Z,1.50
2023-10-12T10:46:17.795Z,1.25
2023-10-12T10:51:38.360Z,1.33
2023-10-12T10:54:05.779Z,1.25
2023-10-12T10:56:39.745Z,1.45
2023-10-12T10:59:08.219Z,1.40
2023-10-12T11:01:35.884Z,1.40
2023-10-12T11:04:09.370Z,1.00
2023-10-12T11:06:38.778Z,1.25
2023-10-12T11:09:07.294Z,1.42
2023-10-12T11:11:50.134Z,1.25
2023-10-12T11:14:19.767Z,1.40
2023-10-12T11:16:47.840Z,1.40
2023-10-12T11:19:20.374Z,1.45
2023-10-12T11:21:55.099Z,1.50
2023-10-12T11:24:25.489Z,1.48
2023-10-12T11:26:58.742Z,1.38
2023-10-12T11:29:27.182Z,1.20
2023-10-12T11:32:12.290Z,1.35
2023-10-12T11:34:47.523Z,1.25
2023-10-12T11:37:19.017Z,1.70
2023-10-12T11:39:47.765Z,1.52
2023-10-12T11:42:18.777Z,1.45
2023-10-12T11:44:48.431Z,1.70
2023-10-12T11:47:26.844Z,1.80
2023-10-12T11:49:59.609Z,1.63
2023-10-12T11:52:31.919Z,1.70
2023-10-12T11:55:21.350Z,1.67
2023-10-12T11:58:09.160Z,3.15
2023-10-12T12:00:40.225Z,1.80
2023-10-12T12:03:09.895Z,1.98
2023-10-12T12:05:37.721Z,2.00
2023-10-12T12:08:12.273Z,1.55
2023-10-12T12:10:57.664Z,2.20
2023-10-12T12:13:25.025Z,1.98
2023-10-12T12:15:56.918Z,2.35
2023-10-12T12:18:24.841Z,1.48
2023-10-12T12:20:54.006Z,1.60
2023-10-12T12:23:28.566Z,1.80
2023-10-12T12:26:08.838Z,1.90
2023-10-12T12:28:44.829Z,1.70
2023-10-12T12:31:16.231Z,1.75
2023-10-12T12:33:47.166Z,1.73
2023-10-12T12:36:22.311Z,2.10
2023-10-12T12:38:53.702Z,2.15
2023-10-12T12:41:21.255Z,2.58
2023-10-12T12:43:57.950Z,2.08
2023-10-12T12:46:26.973Z,1.73
2023-10-12T12:48:54.527Z,2.33
2023-10-12T12:51:22.826Z,2.33
2023-10-12T12:53:51.710Z,2.50
2023-10-12T12:56:21.023Z,2.65
2023-10-12T12:58:50.502Z,2.42
2023-10-12T13:01:26.309Z,3.20
2023-10-12T13:03:57.699Z,3.60
2023-10-12T13:06:25.790Z,3.00
2023-10-12T13:08:53.513Z,2.67
2023-10-12T13:11:23.903Z,3.08
2023-10-12T13:13:52.222Z,3.55
2023-10-12T13:16:19.737Z,4.63
2023-10-12T13:18:48.599Z,5.78
2023-10-12T13:21:18.254Z,5.70
2023-10-12T13:23:46.873Z,5.85
2023-10-12T13:26:34.129Z,5.88
2023-10-12T13:29:02.528Z,5.80
2023-10-12T13:31:31.420Z,5.60
2023-10-12T13:33:59.586Z,4.70
2023-10-12T13:36:31.795Z,4.20
2023-10-12T13:38:59.057Z,4.50
2023-10-12T13:41:26.434Z,3.30
2023-10-12T13:43:54.325Z,3.35
2023-10-12T13:46:21.858Z,3.33
2023-10-12T13:48:50.604Z,3.78
2023-10-12T13:51:17.974Z,4.03
2023-10-12T13:53:47.260Z,3.97
2023-10-12T13:56:14.937Z,4.43
2023-10-12T13:58:48.590Z,4.38
2023-10-12T14:01:16.556Z,5.10
2023-10-12T14:03:56.589Z,4.53
2023-10-12T14:06:31.310Z,5.50
2023-10-12T14:08:59.977Z,4.95
2023-10-12T14:11:29.436Z,5.68
2023-10-12T14:13:56.804Z,6.47
2023-10-12T14:16:24.139Z,6.82
2023-10-12T14:18:51.790Z,6.35
2023-10-12T14:21:20.934Z,6.80
2023-10-12T14:23:49.941Z,6.65
2023-10-12T14:26:24.202Z,6.15
2023-10-12T14:28:53.004Z,6.10
2023-10-12T14:31:22.762Z,5.80
2023-10-12T14:33:54.037Z,5.47
2023-10-12T14:36:21.727Z,5.63
2023-10-12T14:38:54.017Z,5.38
2023-10-12T14:41:21.950Z,4.95
2023-10-12T14:43:51.448Z,4.57
2023-10-12T14:46:21.949Z,4.55
2023-10-12T14:48:53.411Z,3.78
2023-10-12T14:51:25.904Z,3.72
2023-10-12T14:53:53.155Z,3.72
2023-10-12T14:56:24.911Z,3.47
2023-10-12T14:58:52.219Z,3.38
2023-10-12T15:01:21.443Z,3.38
2023-10-12T15:03:48.855Z,3.42
2023-10-12T15:06:16.170Z,3.75
2023-10-12T15:08:44.043Z,3.65
2023-10-12T15:11:11.388Z,4.22
2023-10-12T15:13:38.927Z,4.65
2023-10-12T15:16:11.485Z,5.00
2023-10-12T15:18:41.473Z,4.75
2023-10-12T15:21:28.742Z,5.05
2023-10-12T15:23:58.796Z,5.47
2023-10-12T15:26:26.706Z,5.68
2023-10-12T15:28:55.353Z,5.30
2023-10-12T15:31:28.271Z,6.32
2023-10-12T15:33:59.171Z,6.30
2023-10-12T15:36:26.967Z,6.05
2023-10-12T15:38:54.658Z,6.78
2023-10-12T15:41:22.528Z,6.80
2023-10-12T15:43:50.310Z,7.03
2023-10-12T15:46:18.398Z,6.97
2023-10-12T15:48:47.455Z,7.10
2023-10-12T15:51:20.858Z,6.80
2023-10-12T15:53:48.851Z,7.05
2023-10-12T15:56:17.508Z,7.32
2023-10-12T15:58:47.427Z,7.78
2023-10-12T16:01:16.168Z,8.05
2023-10-12T16:03:44.663Z,7.60
2023-10-12T16:06:14.375Z,7.18
2023-10-12T16:08:42.471Z,8.63
2023-10-12T16:11:12.250Z,9.18
2023-10-12T16:13:39.874Z,7.85
2023-10-12T16:16:14.444Z,8.55
2023-10-12T16:18:49.787Z,8.07
2023-10-12T16:21:17.652Z,9.02
2023-10-12T16:23:46.135Z,8.63
2023-10-12T16:26:18.328Z,8.50
2023-10-12T16:28:47.590Z,8.93
2023-10-12T16:31:15.150Z,8.27
2023-10-12T16:33:42.444Z,9.80
2023-10-12T16:36:12.871Z,9.75
2023-10-12T16:38:40.832Z,10.02
2023-10-12T16:41:08.836Z,9.50
2023-10-12T16:43:38.117Z,9.75
2023-10-12T16:46:06.034Z,8.95
2023-10-12T16:48:33.496Z,10.02
2023-10-12T16:51:00.940Z,9.75
2023-10-12T16:53:30.988Z,9.35
2023-10-12T16:55:59.956Z,9.52
2023-10-12T16:58:28.843Z,10.90
2023-10-12T17:00:57.894Z,10.20
2023-10-12T17:03:25.629Z,11.13
2023-10-12T17:05:57.473Z,10.32
2023-10-12T17:08:30.194Z,10.40
2023-10-12T17:10:57.468Z,11.10
2023-10-12T17:13:24.784Z,10.93
2023-10-12T17:15:52.708Z,9.65
2023-10-12T17:18:21.822Z,10.77
2023-10-12T17:20:49.207Z,10.00
2023-10-12T17:23:17.198Z,9.75
2023-10-12T17:25:45.860Z,9.68
2023-10-12T17:28:13.138Z,10.55
2023-10-12T17:30:42.415Z,10.10
2023-10-12T17:33:10.066Z,9.77
2023-10-12T17:35:39.351Z,10.20
2023-10-12T17:38:09.634Z,10.45
2023-10-12T17:40:41.589Z,11.48
2023-10-12T17:43:11.080Z,10.13
2023-10-12T17:45:39.233Z,10.60
2023-10-12T17:48:07.909Z,10.95
2023-10-12T17:50:38.932Z,10.43
2023-10-12T17:53:08.454Z,10.02
2023-10-12T17:55:39.232Z,9.98
2023-10-12T17:58:06.667Z,11.10
2023-10-12T18:00:34.659Z,10.10
2023-10-12T18:03:02.652Z,10.18
2023-10-12T18:05:32.679Z,10.68
2023-10-12T18:08:19.337Z,11.85
2023-10-12T18:10:47.675Z,10.43
2023-10-12T18:13:15.364Z,10.52
2023-10-12T18:15:42.758Z,10.70
2023-10-12T18:18:41.691Z,9.23
2023-10-12T18:21:09.907Z,10.02
2023-10-12T18:23:40.644Z,10.20
2023-10-12T18:26:10.956Z,10.20
2023-10-12T18:28:38.736Z,10.93
2023-10-12T18:31:10.424Z,11.48
2023-10-12T18:33:39.515Z,10.70
2023-10-12T18:36:12.005Z,10.75
2023-10-12T18:38:41.891Z,10.10
2023-10-12T18:41:11.076Z,10.85
2023-10-12T18:43:42.941Z,11.10
2023-10-12T18:46:10.664Z,10.93
2023-10-12T18:48:37.964Z,10.98
2023-10-12T18:51:10.575Z,9.90
2023-10-12T18:53:41.630Z,11.43
2023-10-12T18:56:14.788Z,10.80
2023-10-12T18:58:44.006Z,11.38
2023-10-12T19:01:15.441Z,10.65
2023-10-12T19:03:45.367Z,11.98
2023-10-12T19:06:18.085Z,10.98
2023-10-12T19:08:45.693Z,11.35
2023-10-12T19:11:13.292Z,10.50
2023-10-12T19:13:44.644Z,10.00
2023-10-12T19:16:17.184Z,11.07
2023-10-12T19:18:44.531Z,10.20
2023-10-12T19:21:17.398Z,10.10
2023-10-12T19:23:45.236Z,10.13
2023-10-12T19:26:12.465Z,9.98
2023-10-12T19:28:39.838Z,10.93
2023-10-12T19:31:13.285Z,10.48
2023-10-12T19:33:42.754Z,10.63
2023-10-12T19:36:14.053Z,11.13
2023-10-12T19:38:44.523Z,10.15
2023-10-12T19:41:11.858Z,10.32
2023-10-12T19:43:40.360Z,10.85
2023-10-12T19:46:08.236Z,9.85
2023-10-12T19:48:42.600Z,10.52
2023-10-12T19:51:14.846Z,10.30
2023-10-12T19:53:44.310Z,10.75
2023-10-12T19:56:14.490Z,10.63
2023-10-12T19:58:42.556Z,10.77
2023-10-12T20:01:18.088Z,10.63
2023-10-12T20:03:51.481Z,9.30
2023-10-12T20:06:20.909Z,9.07
2023-10-12T20:08:50.179Z,8.88
2023-10-12T20:11:18.782Z,8.93
2023-10-12T20:13:49.141Z,7.93
2023-10-12T20:16:25.035Z,8.00
2023-10-12T20:18:54.076Z,7.10
2023-10-12T20:21:21.730Z,6.57
2023-10-12T20:23:49.807Z,5.60
2023-10-12T20:26:24.095Z,6.13
2023-10-12T20:28:52.937Z,5.97
2023-10-12T20:31:20.252Z,5.22
2023-10-12T20:33:49.053Z,5.15
2023-10-12T20:36:16.341Z,4.60
2023-10-12T20:38:44.735Z,4.72
2023-10-12T20:41:14.089Z,4.57
2023-10-12T20:43:41.328Z,5.03
2023-10-12T20:46:12.099Z,4.53
2023-10-12T20:48:40.040Z,4.32
2023-10-12T20:51:07.540Z,4.57
2023-10-12T20:53:35.559Z,4.18
2023-10-12T20:56:26.623Z,3.75
2023-10-12T20:59:12.025Z,4.43
2023-10-12T21:01:47.575Z,3.38
2023-10-12T21:04:21.694Z,3.22
2023-10-12T21:06:52.006Z,3.53
2023-10-12T21:09:22.988Z,3.38
2023-10-12T21:11:58.568Z,3.63
2023-10-12T21:14:35.372Z,3.05
2023-10-12T21:17:05.616Z,3.35
2023-10-12T21:19:46.218Z,3.20
2023-10-12T21:22:19.035Z,3.30
2023-10-12T21:24:55.888Z,3.90
2023-10-12T21:27:37.200Z,3.60
2023-10-12T21:30:06.028Z,3.13
2023-10-12T21:32:33.436Z,3.53
2023-10-12T21:35:01.563Z,3.13
2023-10-12T21:37:34.086Z,2.97
2023-10-12T21:40:24.125Z,2.83
2023-10-12T21:42:51.485Z,3.30
2023-10-12T21:45:23.847Z,2.85
2023-10-12T21:47:56.561Z,3.10
2023-10-12T21:50:25.846Z,2.95
2023-10-12T21:52:53.308Z,2.55
2023-10-12T21:55:20.525Z,3.17
2023-10-12T21:57:47.791Z,2.83
2023-10-12T22:00:32.813Z,3.20
2023-10-12T22:03:01.541Z,4.78
2023-10-12T22:05:29.014Z,2.50
2023-10-12T22:07:56.250Z,3.60
2023-10-12T22:10:24.261Z,2.78
2023-10-12T22:12:57.958Z,3.63
2023-10-12T22:15:31.846Z,3.55
2023-10-12T22:18:02.110Z,3.35
2023-10-12T22:20:29.972Z,3.40
2023-10-12T22:22:59.838Z,3.72
2023-10-12T22:25:31.184Z,3.78
2023-10-12T22:27:58.622Z,3.78
2023-10-12T22:30:27.012Z,3.35
2023-10-12T22:32:54.266Z,3.90
2023-10-12T22:35:21.564Z,4.18
2023-10-12T22:37:48.806Z,3.58
2023-10-12T22:40:18.114Z,3.67
2023-10-12T22:42:45.877Z,4.38
2023-10-12T22:45:21.213Z,3.83
2023-10-12T22:47:48.540Z,3.45
2023-10-12T22:50:16.767Z,4.18
2023-10-12T22:52:44.209Z,3.83
2023-10-12T22:55:12.193Z,3.72
2023-10-12T22:57:41.049Z,4.22
2023-10-12T23:00:27.169Z,4.80
2023-10-12T23:02:55.378Z,4.72
2023-10-12T23:05:25.909Z,4.22
2023-10-12T23:07:55.910Z,4.28
2023-10-12T23:10:24.883Z,4.05
2023-10-12T23:12:54.316Z,4.65
2023-10-12T23:15:23.698Z,4.78
2023-10-12T23:18:10.902Z,4.60
2023-10-12T23:20:38.438Z,5.00
2023-10-12T23:23:12.977Z,5.13
2023-10-12T23:25:50.502Z,6.05
2023-10-12T23:28:20.531Z,6.22
2023-10-12T23:30:53.826Z,6.57
2023-10-12T23:33:35.039Z,6.97
2023-10-12T23:36:02.470Z,7.32
2023-10-12T23:38:48.151Z,7.05
2023-10-12T23:41:15.360Z,7.32
2023-10-12T23:43:54.202Z,7.75
2023-10-12T23:46:25.385Z,8.35
2023-10-12T23:48:58.701Z,7.57
2023-10-12T23:51:29.561Z,6.95
2023-10-12T23:54:19.096Z,7.53
2023-10-12T23:57:01.794Z,7.90
2023-10-12T23:59:31.131Z,7.43
